page 5801 of 1011524 registered users

eBook PostsUsers

  1. 0brakebobcat4 registered @ 2013-02-05 03:28:34, last login @ 2013-02-05 03:28:34
  2. 0polish3land registered @ 2013-02-05 03:29:04, last login @ 2013-02-05 03:29:04
  3. 0act5sand registered @ 2013-02-05 03:31:52, last login @ 2013-02-05 03:31:52
  4. 0fpicker registered @ 2013-02-05 03:31:53, last login @ 2013-02-05 03:41:48
  5. 0atomtwig85 registered @ 2013-02-05 03:33:38, last login @ 2013-02-05 03:33:38
  6. 0uganda10screw registered @ 2013-02-05 03:33:41, last login @ 2013-02-05 03:33:41
  7. 0cod14brian registered @ 2013-02-05 03:33:43, last login @ 2013-02-05 03:33:43
  8. 0bolt6oven registered @ 2013-02-05 03:33:55, last login @ 2013-02-05 03:33:55
  9. 0march61bonsai registered @ 2013-02-05 03:33:56, last login @ 2013-02-05 03:33:56
  10. 0glassdrum8 registered @ 2013-02-05 03:34:08, last login @ 2013-02-05 03:34:08
  11. 0sheeprhythm1 registered @ 2013-02-05 03:34:11, last login @ 2013-02-05 03:34:11
  12. 0jeni144880niemie registered @ 2013-02-05 03:34:19, last login @ 2013-02-05 03:34:19
  13. 0topcart59 registered @ 2013-02-05 03:34:56, last login @ 2013-02-05 03:34:56
  14. 0liquor66pilot registered @ 2013-02-05 03:35:34, last login @ 2013-02-05 03:35:34
  15. 0tuba98base registered @ 2013-02-05 03:36:37, last login @ 2013-02-05 03:36:37
  16. 0swanmarch90 registered @ 2013-02-05 03:36:40, last login @ 2013-02-05 03:36:40
  17. 0child05dash registered @ 2013-02-05 03:37:43, last login @ 2013-02-05 03:37:43
  18. 0aster1x registered @ 2013-02-05 03:39:49, last login @ 2013-02-05 03:39:49
  19. 0scene0toilet registered @ 2013-02-05 03:42:19, last login @ 2013-02-05 03:42:19
  20. 0singerresult33 registered @ 2013-02-05 03:45:39, last login @ 2013-02-05 03:45:39
  21. 0swan36kayak registered @ 2013-02-05 03:45:45, last login @ 2013-02-05 03:45:45
  22. 0blade13result registered @ 2013-02-05 03:47:29, last login @ 2013-02-05 03:47:29
  23. 0congo9radio registered @ 2013-02-05 03:47:46, last login @ 2013-02-05 03:47:46
  24. 0comb60hope registered @ 2013-02-05 03:48:08, last login @ 2013-02-05 03:48:08
  25. 0nailfelony23 registered @ 2013-02-05 03:49:18, last login @ 2013-02-05 03:49:18
  26. 0tennis5sofa registered @ 2013-02-05 03:50:18, last login @ 2013-02-05 03:50:18
  27. 0anirudhashital registered @ 2013-02-05 03:50:21, last login @ 2013-02-05 03:50:21
  28. 0bordersauce7 registered @ 2013-02-05 03:52:34, last login @ 2013-02-05 03:52:34
  29. 0LAFAVOILSTORT registered @ 2013-02-05 03:52:46, last login @ 2013-02-05 03:52:46
  30. 0plainfarm00 registered @ 2013-02-05 03:53:25, last login @ 2013-02-05 03:53:25
  31. 0insecthill15 registered @ 2013-02-05 03:53:48, last login @ 2013-02-05 03:53:48
  32. 0hammer3tree registered @ 2013-02-05 03:54:02, last login @ 2013-02-05 03:54:02
  33. 0purplethomas45 registered @ 2013-02-05 03:55:51, last login @ 2013-02-05 03:55:51
  34. 0rafael2013 registered @ 2013-02-05 03:55:53, last login @ 2013-02-05 04:00:14
  35. 0truck31fur registered @ 2013-02-05 03:56:16, last login @ 2013-02-05 03:56:16
  36. 0burstconga2 registered @ 2013-02-05 03:56:37, last login @ 2013-02-05 03:56:37
  37. 0nursewindow91 registered @ 2013-02-05 03:56:39, last login @ 2013-02-05 03:56:39
  38. 0lotiontower49 registered @ 2013-02-05 03:56:49, last login @ 2013-02-05 03:56:49
  39. 0restsneeze1 registered @ 2013-02-05 03:56:54, last login @ 2013-02-05 03:56:54
  40. 0tonguemargin5 registered @ 2013-02-05 03:58:15, last login @ 2013-02-05 03:58:15
  41. 0grip0flame registered @ 2013-02-05 03:59:08, last login @ 2013-02-05 03:59:08
  42. 0subway1leaf registered @ 2013-02-05 03:59:40, last login @ 2013-02-05 03:59:40
  43. 0toycopper13 registered @ 2013-02-05 03:59:50, last login @ 2013-02-05 03:59:50
  44. 0digger05maraca registered @ 2013-02-05 04:00:35, last login @ 2013-02-05 04:00:35
  45. 0domain2male registered @ 2013-02-05 04:00:39, last login @ 2013-02-05 04:00:39
  46. 0frost3brazil registered @ 2013-02-05 04:01:48, last login @ 2013-02-05 04:01:48
  47. 0temper01pear registered @ 2013-02-05 04:02:36, last login @ 2013-02-05 04:02:36
  48. 0activewriter4 registered @ 2013-02-05 04:03:30, last login @ 2013-02-05 04:03:30
  49. 0mouthclient48 registered @ 2013-02-05 04:04:01, last login @ 2013-02-05 04:04:01
  50. 0parade9novel registered @ 2013-02-05 04:05:02, last login @ 2013-02-05 04:50:52
  51. 0yam25brian registered @ 2013-02-05 04:06:04, last login @ 2013-02-05 04:41:12
  52. 0stovefowl8 registered @ 2013-02-05 04:07:10, last login @ 2013-02-05 04:07:10
  53. 0bull8black registered @ 2013-02-05 04:08:09, last login @ 2013-02-05 04:36:35
  54. 0minute84bumper registered @ 2013-02-05 04:10:50, last login @ 2013-02-05 04:10:50
  55. 0cloudstart46 registered @ 2013-02-05 04:15:41, last login @ 2013-02-05 04:15:41
  56. 0flood28coach registered @ 2013-02-05 04:15:55, last login @ 2013-02-05 04:15:55
  57. 0elbow45rub registered @ 2013-02-05 04:17:07, last login @ 2013-02-05 04:17:07
  58. 0button50single registered @ 2013-02-05 04:17:25, last login @ 2013-02-05 04:17:25
  59. 0sauce04leaf registered @ 2013-02-05 04:17:43, last login @ 2013-02-05 04:17:43
  60. 0gymiris81 registered @ 2013-02-05 04:19:59, last login @ 2013-02-05 04:19:59
  61. 0drawerkendo5 registered @ 2013-02-05 04:20:09, last login @ 2013-02-05 04:20:09
  62. 0heaven5eye registered @ 2013-02-05 04:20:19, last login @ 2013-02-05 04:20:19
  63. 0uncle21flame registered @ 2013-02-05 04:20:43, last login @ 2013-02-05 04:20:43
  64. 0top5jump registered @ 2013-02-05 04:21:03, last login @ 2013-02-05 04:21:03
  65. 0base7moon registered @ 2013-02-05 04:21:48, last login @ 2013-02-05 04:21:48
  66. 0suitsort4 registered @ 2013-02-05 04:22:13, last login @ 2013-02-05 04:22:13
  67. 0pintomato7 registered @ 2013-02-05 04:22:16, last login @ 2013-02-05 04:22:16
  68. 0banker8fifth registered @ 2013-02-05 04:22:52, last login @ 2013-02-05 04:56:23
  69. 0fatherdrive32 registered @ 2013-02-05 04:23:44, last login @ 2013-02-05 04:23:44
  70. 0damage1thread registered @ 2013-02-05 04:23:46, last login @ 2013-02-05 04:23:46
  71. 0hornwaste9 registered @ 2013-02-05 04:23:54, last login @ 2013-02-05 04:23:54
  72. 0shovel5son registered @ 2013-02-05 04:26:05, last login @ 2013-02-05 04:26:05
  73. 0cheese79gate registered @ 2013-02-05 04:26:43, last login @ 2013-02-05 04:49:42
  74. 0armmoney09 registered @ 2013-02-05 04:27:34, last login @ 2013-02-05 04:27:34
  75. 0peanut2pisces registered @ 2013-02-05 04:27:35, last login @ 2013-02-05 04:27:35
  76. 0tempoloan6 registered @ 2013-02-05 04:28:04, last login @ 2013-02-05 04:28:04
  77. 0month3shoe registered @ 2013-02-05 04:28:32, last login @ 2013-02-05 04:28:32
  78. 0face2shorts registered @ 2013-02-05 04:30:04, last login @ 2013-02-05 04:30:04
  79. 0campfitness588 registered @ 2013-02-05 04:30:55, last login @ 2013-02-05 04:30:55
  80. 0rangeshark23 registered @ 2013-02-05 04:30:59, last login @ 2013-02-05 04:30:59
  81. 0leekepoch9 registered @ 2013-02-05 04:31:41, last login @ 2013-02-05 04:31:41
  82. 0hall0action registered @ 2013-02-05 04:32:57, last login @ 2013-02-05 04:32:57
  83. 0cribbike0 registered @ 2013-02-05 04:34:09, last login @ 2013-02-05 04:34:09
  84. 0match49report registered @ 2013-02-05 04:34:19, last login @ 2013-02-05 04:34:19
  85. 0dew8sea registered @ 2013-02-05 04:34:42, last login @ 2013-02-05 04:34:42
  86. 0vahallove registered @ 2013-02-05 04:35:36, last login @ 2013-02-05 04:35:36
  87. 0leaf7lake registered @ 2013-02-05 04:35:40, last login @ 2013-02-05 04:35:40
  88. 0cloudylinda6 registered @ 2013-02-05 04:36:17, last login @ 2013-02-05 04:36:17
  89. 0graincrime95 registered @ 2013-02-05 04:36:34, last login @ 2013-02-05 04:36:34
  90. 0gongchard0 registered @ 2013-02-05 04:36:38, last login @ 2013-02-05 04:36:38
  91. 0brazilcart00 registered @ 2013-02-05 04:37:45, last login @ 2013-02-05 04:37:45
  92. 0celery7humor registered @ 2013-02-05 04:41:07, last login @ 2013-02-05 04:41:07
  93. 0valuesweets3 registered @ 2013-02-05 04:41:59, last login @ 2013-02-05 04:41:59
  94. 0baboon0parent registered @ 2013-02-05 04:42:19, last login @ 2013-02-05 04:42:19
  95. 0steambull64 registered @ 2013-02-05 04:43:29, last login @ 2013-02-05 04:43:29
  96. 0usecanada0 registered @ 2013-02-05 04:44:10, last login @ 2013-02-05 04:44:10
  97. 0spear2priest registered @ 2013-02-05 04:44:59, last login @ 2013-02-05 04:44:59
  98. 0mouthjam9 registered @ 2013-02-05 04:46:42, last login @ 2013-02-05 04:46:42
  99. 0shortswalrus2 registered @ 2013-02-05 04:47:47, last login @ 2013-02-05 04:47:47
  100. 0ghanapair53 registered @ 2013-02-05 04:50:41, last login @ 2013-02-05 04:50:41
  101. 0rockoffice4 registered @ 2013-02-05 04:50:52, last login @ 2013-02-05 04:50:52

More...

[5811] [5810] [5809] [5808] [5807] [5806] [5805] [5804] [5803] [5802] [5801] [5800] [5799] [5798] [5797] [5796] [5795] [5794] [5793] [5792] ...[1]
Back to Top